sensor_id;sensor_type;location;lat;lon;timestamp;pressure;altitude;pressure_sealevel;temperature;humidity
64402;BME280;50724;42.376;23.768;2024-01-11T00:01:26;93959.25;;;-6.23;100.00
64402;BME280;50724;42.376;23.768;2024-01-11T00:04:26;93954.72;;;-6.41;100.00
64402;BME280;50724;42.376;23.768;2024-01-11T00:07:26;93951.72;;;-6.54;100.00
64402;BME280;50724;42.376;23.768;2024-01-11T00:10:27;93942.09;;;-6.44;100.00
64402;BME280;50724;42.376;23.768;2024-01-11T00:13:27;93949.22;;;-6.55;100.00
64402;BME280;50724;42.376;23.768;2024-01-11T00:16:28;93943.13;;;-6.50;100.00
64402;BME280;50724;42.376;23.768;2024-01-11T00:19:28;93934.09;;;-6.60;100.00
64402;BME280;50724;42.376;23.768;2024-01-11T00:22:29;93932.44;;;-6.61;100.00
64402;BME280;50724;42.376;23.768;2024-01-11T00:25:29;93930.00;;;-6.64;100.00
64402;BME280;50724;42.376;23.768;2024-01-11T00:28:30;93929.75;;;-6.56;100.00
64402;BME280;50724;42.376;23.768;2024-01-11T00:31:30;93926.53;;;-6.61;100.00
64402;BME280;50724;42.376;23.768;2024-01-11T00:34:31;93914.75;;;-6.65;100.00
64402;BME280;50724;42.376;23.768;2024-01-11T00:37:31;93918.75;;;-6.57;100.00
64402;BME280;50724;42.376;23.768;2024-01-11T00:40:32;93912.97;;;-6.62;100.00
64402;BME280;50724;42.376;23.768;2024-01-11T00:43:33;93913.03;;;-6.37;100.00
64402;BME280;50724;42.376;23.768;2024-01-11T00:46:34;93907.47;;;-6.22;100.00
64402;BME280;50724;42.376;23.768;2024-01-11T00:49:34;93909.31;;;-6.53;100.00
64402;BME280;50724;42.376;23.768;2024-01-11T00:52:35;93911.34;;;-6.64;100.00
64402;BME280;50724;42.376;23.768;2024-01-11T00:55:35;93904.97;;;-6.77;100.00
64402;BME280;50724;42.376;23.768;2024-01-11T00:58:36;93898.28;;;-6.80;100.00
64402;BME280;50724;42.376;23.768;2024-01-11T01:01:36;93900.22;;;-6.88;100.00
64402;BME280;50724;42.376;23.768;2024-01-11T01:04:38;93891.81;;;-6.90;100.00
64402;BME280;50724;42.376;23.768;2024-01-11T01:07:39;93899.56;;;-6.94;100.00
64402;BME280;50724;42.376;23.768;2024-01-11T01:10:39;93893.41;;;-7.15;100.00
64402;BME280;50724;42.376;23.768;2024-01-11T01:13:40;93884.88;;;-7.14;100.00
64402;BME280;50724;42.376;23.768;2024-01-11T01:16:40;93884.59;;;-7.04;100.00
64402;BME280;50724;42.376;23.768;2024-01-11T01:19:41;93884.03;;;-7.15;100.00
64402;BME280;50724;42.376;23.768;2024-01-11T01:22:42;93883.88;;;-7.09;100.00
64402;BME280;50724;42.376;23.768;2024-01-11T01:25:42;93881.94;;;-7.01;100.00
64402;BME280;50724;42.376;23.768;2024-01-11T01:28:43;93876.81;;;-6.99;100.00
64402;BME280;50724;42.376;23.768;2024-01-11T01:31:52;93879.38;;;-6.99;100.00
64402;BME280;50724;42.376;23.768;2024-01-11T01:34:52;93876.06;;;-7.03;100.00
64402;BME280;50724;42.376;23.768;2024-01-11T01:37:53;93869.34;;;-7.04;100.00
64402;BME280;50724;42.376;23.768;2024-01-11T01:40:53;93867.84;;;-7.11;100.00
64402;BME280;50724;42.376;23.768;2024-01-11T01:43:54;93867.19;;;-7.17;100.00
64402;BME280;50724;42.376;23.768;2024-01-11T01:46:54;93866.59;;;-7.25;100.00
64402;BME280;50724;42.376;23.768;2024-01-11T01:49:55;93868.00;;;-7.15;100.00
64402;BME280;50724;42.376;23.768;2024-01-11T01:52:56;93870.63;;;-6.90;100.00
64402;BME280;50724;42.376;23.768;2024-01-11T01:55:59;93867.06;;;-7.13;100.00
64402;BME280;50724;42.376;23.768;2024-01-11T01:59:00;93859.91;;;-7.00;100.00
64402;BME280;50724;42.376;23.768;2024-01-11T02:02:01;93850.88;;;-7.10;100.00
64402;BME280;50724;42.376;23.768;2024-01-11T02:05:02;93850.88;;;-7.10;100.00
64402;BME280;50724;42.376;23.768;2024-01-11T02:08:03;93850.16;;;-7.14;100.00
64402;BME280;50724;42.376;23.768;2024-01-11T02:11:17;93851.00;;;-7.15;100.00
64402;BME280;50724;42.376;23.768;2024-01-11T02:14:19;93849.44;;;-7.19;100.00
64402;BME280;50724;42.376;23.768;2024-01-11T02:17:20;93846.78;;;-7.14;100.00
64402;BME280;50724;42.376;23.768;2024-01-11T02:20:21;93840.91;;;-7.16;100.00
64402;BME280;50724;42.376;23.768;2024-01-11T02:23:24;93837.09;;;-7.03;100.00
64402;BME280;50724;42.376;23.768;2024-01-11T02:26:25;93835.69;;;-7.12;100.00
64402;BME280;50724;42.376;23.768;2024-01-11T02:29:26;93839.66;;;-7.03;100.00
64402;BME280;50724;42.376;23.768;2024-01-11T02:32:26;93832.41;;;-7.15;100.00
64402;BME280;50724;42.376;23.768;2024-01-11T02:35:27;93834.97;;;-7.15;100.00
64402;BME280;50724;42.376;23.768;2024-01-11T02:38:28;93837.22;;;-7.06;100.00
64402;BME280;50724;42.376;23.768;2024-01-11T02:41:31;93832.28;;;-7.11;100.00
64402;BME280;50724;42.376;23.768;2024-01-11T02:44:32;93834.41;;;-6.97;100.00
64402;BME280;50724;42.376;23.768;2024-01-11T02:47:32;93826.84;;;-7.00;100.00
64402;BME280;50724;42.376;23.768;2024-01-11T02:50:33;93827.75;;;-7.01;100.00
64402;BME280;50724;42.376;23.768;2024-01-11T02:53:33;93829.94;;;-6.90;100.00
64402;BME280;50724;42.376;23.768;2024-01-11T02:56:34;93816.63;;;-6.99;100.00
64402;BME280;50724;42.376;23.768;2024-01-11T02:59:36;93814.28;;;-7.05;100.00
64402;BME280;50724;42.376;23.768;2024-01-11T03:02:37;93812.50;;;-7.01;100.00
64402;BME280;50724;42.376;23.768;2024-01-11T03:05:38;93812.88;;;-7.13;100.00
64402;BME280;50724;42.376;23.768;2024-01-11T03:08:39;93815.06;;;-7.03;100.00
64402;BME280;50724;42.376;23.768;2024-01-11T03:11:40;93811.28;;;-6.89;100.00
64402;BME280;50724;42.376;23.768;2024-01-11T03:14:41;93804.03;;;-7.02;100.00
64402;BME280;50724;42.376;23.768;2024-01-11T03:17:41;93803.13;;;-6.99;100.00
64402;BME280;50724;42.376;23.768;2024-01-11T03:20:41;93801.66;;;-7.06;100.00
64402;BME280;50724;42.376;23.768;2024-01-11T03:23:42;93806.88;;;-7.11;100.00
64402;BME280;50724;42.376;23.768;2024-01-11T03:26:42;93803.66;;;-7.17;100.00
64402;BME280;50724;42.376;23.768;2024-01-11T03:29:43;93798.47;;;-7.13;100.00
64402;BME280;50724;42.376;23.768;2024-01-11T03:32:43;93800.09;;;-7.12;100.00
64402;BME280;50724;42.376;23.768;2024-01-11T03:35:53;93798.31;;;-7.08;100.00
64402;BME280;50724;42.376;23.768;2024-01-11T03:38:53;93799.31;;;-7.14;100.00
64402;BME280;50724;42.376;23.768;2024-01-11T03:41:53;93803.25;;;-7.04;100.00
64402;BME280;50724;42.376;23.768;2024-01-11T03:44:54;93788.72;;;-7.00;100.00
64402;BME280;50724;42.376;23.768;2024-01-11T03:47:54;93788.72;;;-7.00;100.00
64402;BME280;50724;42.376;23.768;2024-01-11T03:50:55;93788.97;;;-7.08;100.00
64402;BME280;50724;42.376;23.768;2024-01-11T03:53:55;93799.25;;;-7.11;100.00
64402;BME280;50724;42.376;23.768;2024-01-11T03:56:56;93789.66;;;-7.03;100.00
64402;BME280;50724;42.376;23.768;2024-01-11T03:59:57;93782.66;;;-6.44;100.00
64402;BME280;50724;42.376;23.768;2024-01-11T04:02:59;93778.25;;;-5.89;100.00
64402;BME280;50724;42.376;23.768;2024-01-11T04:05:59;93773.03;;;-5.63;100.00
64402;BME280;50724;42.376;23.768;2024-01-11T04:09:00;93771.56;;;-5.47;100.00
64402;BME280;50724;42.376;23.768;2024-01-11T04:12:00;93767.81;;;-5.37;100.00
64402;BME280;50724;42.376;23.768;2024-01-11T04:15:01;93772.00;;;-5.36;100.00
64402;BME280;50724;42.376;23.768;2024-01-11T04:18:01;93766.38;;;-5.22;100.00
64402;BME280;50724;42.376;23.768;2024-01-11T04:21:02;93762.09;;;-5.22;100.00
64402;BME280;50724;42.376;23.768;2024-01-11T04:24:03;93768.25;;;-5.49;100.00
64402;BME280;50724;42.376;23.768;2024-01-11T04:27:03;93771.28;;;-5.63;100.00
64402;BME280;50724;42.376;23.768;2024-01-11T04:30:04;93767.03;;;-5.62;100.00
64402;BME280;50724;42.376;23.768;2024-01-11T04:33:04;93772.72;;;-5.56;100.00
64402;BME280;50724;42.376;23.768;2024-01-11T04:36:05;93761.75;;;-5.58;100.00
64402;BME280;50724;42.376;23.768;2024-01-11T04:39:06;93767.84;;;-5.62;100.00
64402;BME280;50724;42.376;23.768;2024-01-11T04:42:07;93763.63;;;-5.84;100.00
64402;BME280;50724;42.376;23.768;2024-01-11T04:45:08;93762.78;;;-6.33;100.00
64402;BME280;50724;42.376;23.768;2024-01-11T04:48:09;93769.56;;;-6.58;100.00
64402;BME280;50724;42.376;23.768;2024-01-11T04:51:09;93770.19;;;-6.51;100.00
64402;BME280;50724;42.376;23.768;2024-01-11T04:54:10;93778.44;;;-6.69;100.00
64402;BME280;50724;42.376;23.768;2024-01-11T04:57:10;93775.41;;;-6.80;100.00
64402;BME280;50724;42.376;23.768;2024-01-11T05:00:11;93763.00;;;-6.89;100.00
64402;BME280;50724;42.376;23.768;2024-01-11T05:03:12;93771.56;;;-6.66;100.00
64402;BME280;50724;42.376;23.768;2024-01-11T05:06:16;93759.72;;;-6.93;100.00
64402;BME280;50724;42.376;23.768;2024-01-11T05:09:17;93763.69;;;-7.12;100.00
64402;BME280;50724;42.376;23.768;2024-01-11T05:12:17;93765.97;;;-7.31;100.00
64402;BME280;50724;42.376;23.768;2024-01-11T05:15:18;93756.94;;;-7.39;100.00
64402;BME280;50724;42.376;23.768;2024-01-11T05:18:18;93762.84;;;-7.39;100.00
64402;BME280;50724;42.376;23.768;2024-01-11T05:21:19;93754.66;;;-7.48;100.00
64402;BME280;50724;42.376;23.768;2024-01-11T05:24:20;93756.22;;;-7.44;100.00
64402;BME280;50724;42.376;23.768;2024-01-11T05:27:20;93747.78;;;-7.45;100.00
64402;BME280;50724;42.376;23.768;2024-01-11T05:30:21;93745.38;;;-7.49;100.00
64402;BME280;50724;42.376;23.768;2024-01-11T05:33:21;93744.50;;;-7.48;100.00
64402;BME280;50724;42.376;23.768;2024-01-11T05:36:21;93743.47;;;-7.43;100.00
64402;BME280;50724;42.376;23.768;2024-01-11T05:39:22;93733.56;;;-7.50;100.00
64402;BME280;50724;42.376;23.768;2024-01-11T05:42:23;93741.63;;;-7.38;100.00
64402;BME280;50724;42.376;23.768;2024-01-11T05:45:24;93741.75;;;-7.41;100.00
64402;BME280;50724;42.376;23.768;2024-01-11T05:48:24;93742.38;;;-7.34;100.00
64402;BME280;50724;42.376;23.768;2024-01-11T05:51:24;93741.59;;;-7.36;100.00
64402;BME280;50724;42.376;23.768;2024-01-11T05:54:25;93735.69;;;-7.37;100.00
64402;BME280;50724;42.376;23.768;2024-01-11T05:57:26;93731.84;;;-7.22;100.00
64402;BME280;50724;42.376;23.768;2024-01-11T06:00:27;93737.03;;;-7.25;100.00
64402;BME280;50724;42.376;23.768;2024-01-11T06:03:27;93731.25;;;-7.04;100.00
64402;BME280;50724;42.376;23.768;2024-01-11T06:06:28;93735.22;;;-6.95;100.00
64402;BME280;50724;42.376;23.768;2024-01-11T06:09:29;93740.00;;;-6.86;100.00
64402;BME280;50724;42.376;23.768;2024-01-11T06:12:30;93729.13;;;-6.91;100.00
64402;BME280;50724;42.376;23.768;2024-01-11T06:15:31;93715.47;;;-6.63;100.00
64402;BME280;50724;42.376;23.768;2024-01-11T06:18:32;93723.69;;;-6.30;100.00
64402;BME280;50724;42.376;23.768;2024-01-11T06:21:32;93712.22;;;-5.94;100.00
64402;BME280;50724;42.376;23.768;2024-01-11T06:24:33;93720.50;;;-5.67;100.00
64402;BME280;50724;42.376;23.768;2024-01-11T06:27:34;93717.78;;;-5.63;100.00
64402;BME280;50724;42.376;23.768;2024-01-11T06:30:34;93716.75;;;-5.57;100.00
64402;BME280;50724;42.376;23.768;2024-01-11T06:33:35;93718.09;;;-5.25;100.00
64402;BME280;50724;42.376;23.768;2024-01-11T06:36:37;93721.09;;;-5.16;100.00
64402;BME280;50724;42.376;23.768;2024-01-11T06:39:37;93722.19;;;-5.01;100.00
64402;BME280;50724;42.376;23.768;2024-01-11T06:42:38;93718.22;;;-4.87;100.00
64402;BME280;50724;42.376;23.768;2024-01-11T06:45:38;93715.19;;;-4.74;100.00
64402;BME280;50724;42.376;23.768;2024-01-11T06:48:39;93710.72;;;-4.69;100.00
64402;BME280;50724;42.376;23.768;2024-01-11T06:51:40;93722.03;;;-4.55;100.00
64402;BME280;50724;42.376;23.768;2024-01-11T06:54:40;93706.50;;;-4.30;100.00
64402;BME280;50724;42.376;23.768;2024-01-11T06:57:41;93700.56;;;-4.31;100.00
64402;BME280;50724;42.376;23.768;2024-01-11T07:00:41;93705.88;;;-4.15;100.00
64402;BME280;50724;42.376;23.768;2024-01-11T07:03:43;93697.00;;;-4.27;100.00
64402;BME280;50724;42.376;23.768;2024-01-11T07:06:43;93697.75;;;-4.04;100.00
64402;BME280;50724;42.376;23.768;2024-01-11T07:09:52;93696.16;;;-3.88;100.00
64402;BME280;50724;42.376;23.768;2024-01-11T07:12:55;93689.56;;;-3.74;100.00
64402;BME280;50724;42.376;23.768;2024-01-11T07:15:56;93691.13;;;-3.34;100.00
64402;BME280;50724;42.376;23.768;2024-01-11T07:18:58;93690.63;;;-3.23;100.00
64402;BME280;50724;42.376;23.768;2024-01-11T07:21:58;93689.53;;;-3.18;100.00
64402;BME280;50724;42.376;23.768;2024-01-11T07:24:59;93693.19;;;-3.23;100.00
64402;BME280;50724;42.376;23.768;2024-01-11T07:28:07;93698.25;;;-3.05;100.00
64402;BME280;50724;42.376;23.768;2024-01-11T07:31:10;93690.47;;;-3.02;100.00
64402;BME280;50724;42.376;23.768;2024-01-11T07:34:11;93702.13;;;-2.96;100.00
64402;BME280;50724;42.376;23.768;2024-01-11T07:37:11;93691.97;;;-2.98;100.00
64402;BME280;50724;42.376;23.768;2024-01-11T07:40:12;93691.88;;;-3.13;100.00
64402;BME280;50724;42.376;23.768;2024-01-11T07:43:14;93683.00;;;-3.06;100.00
64402;BME280;50724;42.376;23.768;2024-01-11T07:46:14;93680.16;;;-3.00;100.00
64402;BME280;50724;42.376;23.768;2024-01-11T07:49:15;93678.66;;;-2.87;100.00
64402;BME280;50724;42.376;23.768;2024-01-11T07:52:15;93675.13;;;-2.50;100.00
64402;BME280;50724;42.376;23.768;2024-01-11T07:55:24;93674.66;;;-2.24;100.00
64402;BME280;50724;42.376;23.768;2024-01-11T07:58:26;93680.41;;;-2.19;100.00
64402;BME280;50724;42.376;23.768;2024-01-11T08:01:27;93673.59;;;-1.87;100.00
64402;BME280;50724;42.376;23.768;2024-01-11T08:04:27;93678.50;;;-1.83;100.00
64402;BME280;50724;42.376;23.768;2024-01-11T08:07:28;93683.84;;;-1.87;100.00
64402;BME280;50724;42.376;23.768;2024-01-11T08:16:27;93670.59;;;-1.78;100.00
64402;BME280;50724;42.376;23.768;2024-01-11T08:19:36;93673.03;;;-1.60;100.00
64402;BME280;50724;42.376;23.768;2024-01-11T08:22:42;93669.38;;;-1.40;100.00
64402;BME280;50724;42.376;23.768;2024-01-11T08:25:43;93662.75;;;-1.28;100.00
64402;BME280;50724;42.376;23.768;2024-01-11T08:28:43;93661.50;;;-1.21;100.00
64402;BME280;50724;42.376;23.768;2024-01-11T08:31:44;93658.97;;;-1.06;100.00
64402;BME280;50724;42.376;23.768;2024-01-11T08:34:44;93653.63;;;-1.03;100.00
64402;BME280;50724;42.376;23.768;2024-01-11T08:37:45;93645.19;;;-0.89;100.00
64402;BME280;50724;42.376;23.768;2024-01-11T08:40:45;93644.31;;;-0.74;100.00
64402;BME280;50724;42.376;23.768;2024-01-11T08:43:46;93652.94;;;-0.75;100.00
64402;BME280;50724;42.376;23.768;2024-01-11T08:46:46;93638.38;;;-0.60;100.00
64402;BME280;50724;42.376;23.768;2024-01-11T08:49:47;93642.31;;;-0.69;100.00
64402;BME280;50724;42.376;23.768;2024-01-11T08:52:47;93638.53;;;-0.48;100.00
64402;BME280;50724;42.376;23.768;2024-01-11T08:55:48;93638.09;;;-0.40;100.00
64402;BME280;50724;42.376;23.768;2024-01-11T08:58:49;93635.31;;;-0.37;100.00
64402;BME280;50724;42.376;23.768;2024-01-11T09:01:49;93629.28;;;-0.36;100.00
64402;BME280;50724;42.376;23.768;2024-01-11T09:04:50;93628.28;;;-0.34;100.00
64402;BME280;50724;42.376;23.768;2024-01-11T09:07:50;93619.66;;;-0.05;100.00
64402;BME280;50724;42.376;23.768;2024-01-11T09:10:51;93618.66;;;0.26;100.00
64402;BME280;50724;42.376;23.768;2024-01-11T09:13:51;93610.38;;;0.35;100.00
64402;BME280;50724;42.376;23.768;2024-01-11T09:16:52;93598.75;;;0.56;100.00
64402;BME280;50724;42.376;23.768;2024-01-11T09:19:53;93602.63;;;0.49;100.00
64402;BME280;50724;42.376;23.768;2024-01-11T09:22:53;93591.75;;;0.73;100.00
64402;BME280;50724;42.376;23.768;2024-01-11T09:25:54;93586.06;;;0.94;97.37
64402;BME280;50724;42.376;23.768;2024-01-11T09:28:54;93585.63;;;1.27;98.04
64402;BME280;50724;42.376;23.768;2024-01-11T09:31:55;93582.78;;;1.44;99.24
64402;BME280;50724;42.376;23.768;2024-01-11T09:35:04;93574.53;;;1.39;96.64
64402;BME280;50724;42.376;23.768;2024-01-11T09:38:04;93566.50;;;1.44;99.63
64402;BME280;50724;42.376;23.768;2024-01-11T09:41:07;93563.72;;;1.47;98.43
64402;BME280;50724;42.376;23.768;2024-01-11T09:44:08;93556.56;;;1.25;97.63
64402;BME280;50724;42.376;23.768;2024-01-11T09:47:10;93557.72;;;1.46;97.93
64402;BME280;50724;42.376;23.768;2024-01-11T09:50:13;93548.88;;;1.50;96.87
64402;BME280;50724;42.376;23.768;2024-01-11T09:53:21;93541.56;;;1.44;96.33
64402;BME280;50724;42.376;23.768;2024-01-11T09:56:23;93541.34;;;1.60;96.99
64402;BME280;50724;42.376;23.768;2024-01-11T09:59:24;93536.59;;;1.79;93.30
64402;BME280;50724;42.376;23.768;2024-01-11T10:02:26;93529.81;;;1.78;91.22
64402;BME280;50724;42.376;23.768;2024-01-11T10:05:27;93522.44;;;1.97;95.72
64402;BME280;50724;42.376;23.768;2024-01-11T10:08:29;93526.44;;;2.14;91.65
64402;BME280;50724;42.376;23.768;2024-01-11T10:11:30;93526.69;;;1.85;85.68
64402;BME280;50724;42.376;23.768;2024-01-11T10:14:30;93519.63;;;1.64;83.55
64402;BME280;50724;42.376;23.768;2024-01-11T10:17:32;93513.81;;;1.22;83.22
64402;BME280;50724;42.376;23.768;2024-01-11T10:20:32;93503.28;;;1.13;81.87
64402;BME280;50724;42.376;23.768;2024-01-11T10:23:33;93501.75;;;1.48;84.40
64402;BME280;50724;42.376;23.768;2024-01-11T10:26:35;93491.03;;;1.67;79.46
64402;BME280;50724;42.376;23.768;2024-01-11T10:29:36;93484.41;;;1.88;79.97
64402;BME280;50724;42.376;23.768;2024-01-11T10:32:37;93482.25;;;1.82;75.53
64402;BME280;50724;42.376;23.768;2024-01-11T10:35:38;93479.63;;;2.07;73.17
64402;BME280;50724;42.376;23.768;2024-01-11T10:38:39;93481.28;;;2.08;73.17
64402;BME280;50724;42.376;23.768;2024-01-11T10:41:40;93476.16;;;1.95;70.71
64402;BME280;50724;42.376;23.768;2024-01-11T10:44:46;93476.97;;;2.08;73.02
64402;BME280;50724;42.376;23.768;2024-01-11T10:47:53;93466.03;;;2.05;72.51
64402;BME280;50724;42.376;23.768;2024-01-11T10:50:59;93452.00;;;2.33;72.07
64402;BME280;50724;42.376;23.768;2024-01-11T10:54:00;93454.31;;;2.48;73.63
64402;BME280;50724;42.376;23.768;2024-01-11T10:57:02;93445.91;;;2.81;73.37
64402;BME280;50724;42.376;23.768;2024-01-11T11:00:05;93448.56;;;2.79;71.49
64402;BME280;50724;42.376;23.768;2024-01-11T11:03:06;93441.78;;;2.55;72.69
64402;BME280;50724;42.376;23.768;2024-01-11T11:06:10;93437.13;;;2.13;72.83
64402;BME280;50724;42.376;23.768;2024-01-11T11:09:13;93436.97;;;1.90;74.92
64402;BME280;50724;42.376;23.768;2024-01-11T11:12:16;93435.78;;;2.07;74.11
64402;BME280;50724;42.376;23.768;2024-01-11T11:15:17;93419.38;;;2.08;72.58
64402;BME280;50724;42.376;23.768;2024-01-11T11:18:19;93412.03;;;2.15;74.27
64402;BME280;50724;42.376;23.768;2024-01-11T11:21:20;93413.59;;;2.04;73.44
64402;BME280;50724;42.376;23.768;2024-01-11T11:24:21;93409.66;;;2.12;73.71
64402;BME280;50724;42.376;23.768;2024-01-11T11:27:21;93405.63;;;2.20;73.06
64402;BME280;50724;42.376;23.768;2024-01-11T11:30:22;93401.31;;;2.08;72.16
64402;BME280;50724;42.376;23.768;2024-01-11T11:33:23;93390.66;;;1.89;73.60
64402;BME280;50724;42.376;23.768;2024-01-11T11:36:28;93390.47;;;2.16;74.15
64402;BME280;50724;42.376;23.768;2024-01-11T11:39:29;93372.81;;;1.86;73.27
64402;BME280;50724;42.376;23.768;2024-01-11T11:42:34;93371.94;;;1.74;73.39
64402;BME280;50724;42.376;23.768;2024-01-11T11:45:35;93375.84;;;1.18;74.50
64402;BME280;50724;42.376;23.768;2024-01-11T11:51:43;93368.47;;;0.89;77.30
64402;BME280;50724;42.376;23.768;2024-01-11T11:54:43;93365.84;;;1.01;78.16
64402;BME280;50724;42.376;23.768;2024-01-11T11:57:45;93359.69;;;1.04;78.85
64402;BME280;50724;42.376;23.768;2024-01-11T12:00:45;93354.56;;;0.91;79.82
64402;BME280;50724;42.376;23.768;2024-01-11T12:03:47;93345.91;;;0.80;82.86
64402;BME280;50724;42.376;23.768;2024-01-11T12:06:52;93346.72;;;0.80;82.45
64402;BME280;50724;42.376;23.768;2024-01-11T12:09:52;93343.44;;;0.65;81.63
64402;BME280;50724;42.376;23.768;2024-01-11T12:12:53;93339.50;;;0.60;82.88
64402;BME280;50724;42.376;23.768;2024-01-11T12:15:54;93339.72;;;0.69;81.57
64402;BME280;50724;42.376;23.768;2024-01-11T12:18:55;93336.75;;;0.63;83.89
64402;BME280;50724;42.376;23.768;2024-01-11T12:21:56;93332.38;;;0.63;82.63
64402;BME280;50724;42.376;23.768;2024-01-11T12:24:56;93322.00;;;0.65;83.96
64402;BME280;50724;42.376;23.768;2024-01-11T12:27:58;93320.53;;;0.99;83.95
64402;BME280;50724;42.376;23.768;2024-01-11T12:30:58;93321.81;;;0.93;80.99
64402;BME280;50724;42.376;23.768;2024-01-11T12:33:58;93319.84;;;0.84;81.71
64402;BME280;50724;42.376;23.768;2024-01-11T12:36:59;93306.88;;;0.73;80.78
64402;BME280;50724;42.376;23.768;2024-01-11T12:40:02;93319.53;;;0.76;81.24
64402;BME280;50724;42.376;23.768;2024-01-11T12:43:04;93313.97;;;0.57;82.02
64402;BME280;50724;42.376;23.768;2024-01-11T12:46:04;93313.47;;;0.77;83.19
64402;BME280;50724;42.376;23.768;2024-01-11T12:49:09;93315.41;;;0.86;82.97
64402;BME280;50724;42.376;23.768;2024-01-11T12:52:18;93323.66;;;0.91;82.26
64402;BME280;50724;42.376;23.768;2024-01-11T12:55:20;93315.22;;;0.51;83.29
64402;BME280;50724;42.376;23.768;2024-01-11T12:58:21;93316.97;;;0.51;83.83
64402;BME280;50724;42.376;23.768;2024-01-11T13:01:22;93311.91;;;0.49;83.82
64402;BME280;50724;42.376;23.768;2024-01-11T13:04:23;93304.81;;;0.53;83.89
64402;BME280;50724;42.376;23.768;2024-01-11T13:07:23;93292.56;;;0.56;84.38
64402;BME280;50724;42.376;23.768;2024-01-11T13:10:24;93296.28;;;0.65;83.39
64402;BME280;50724;42.376;23.768;2024-01-11T13:13:28;93293.91;;;0.62;83.66
64402;BME280;50724;42.376;23.768;2024-01-11T13:16:30;93282.78;;;0.74;82.23
64402;BME280;50724;42.376;23.768;2024-01-11T13:19:31;93274.53;;;0.56;82.76
64402;BME280;50724;42.376;23.768;2024-01-11T13:22:31;93278.28;;;0.65;83.03
64402;BME280;50724;42.376;23.768;2024-01-11T13:25:32;93280.22;;;0.61;83.97
64402;BME280;50724;42.376;23.768;2024-01-11T13:28:41;93272.56;;;0.85;82.63
64402;BME280;50724;42.376;23.768;2024-01-11T13:35:22;93270.63;;;0.63;82.57
64402;BME280;50724;42.376;23.768;2024-01-11T13:38:32;93266.44;;;0.62;82.59
64402;BME280;50724;42.376;23.768;2024-01-11T13:41:32;93272.91;;;0.30;81.94
64402;BME280;50724;42.376;23.768;2024-01-11T13:44:35;93260.66;;;0.59;82.75
64402;BME280;50724;42.376;23.768;2024-01-11T13:47:36;93251.09;;;0.48;81.59
64402;BME280;50724;42.376;23.768;2024-01-11T13:50:36;93261.16;;;0.26;82.01
64402;BME280;50724;42.376;23.768;2024-01-11T13:53:37;93255.94;;;0.40;82.63
64402;BME280;50724;42.376;23.768;2024-01-11T13:56:38;93248.00;;;0.43;82.41
64402;BME280;50724;42.376;23.768;2024-01-11T13:59:38;93242.25;;;0.40;81.77
64402;BME280;50724;42.376;23.768;2024-01-11T14:02:39;93248.91;;;0.42;82.58
64402;BME280;50724;42.376;23.768;2024-01-11T14:05:39;93241.28;;;0.66;81.23
64402;BME280;50724;42.376;23.768;2024-01-11T14:08:48;93241.44;;;0.39;81.36
64402;BME280;50724;42.376;23.768;2024-01-11T14:11:49;93241.72;;;0.47;82.14
64402;BME280;50724;42.376;23.768;2024-01-11T14:14:50;93238.53;;;0.56;81.10
64402;BME280;50724;42.376;23.768;2024-01-11T14:17:51;93232.78;;;0.53;81.15
64402;BME280;50724;42.376;23.768;2024-01-11T14:20:51;93241.63;;;0.24;81.41
64402;BME280;50724;42.376;23.768;2024-01-11T14:23:51;93220.44;;;0.20;81.45
64402;BME280;50724;42.376;23.768;2024-01-11T14:26:52;93217.69;;;0.23;82.12
64402;BME280;50724;42.376;23.768;2024-01-11T14:29:52;93218.28;;;0.27;81.56
64402;BME280;50724;42.376;23.768;2024-01-11T14:32:53;93214.06;;;0.26;81.77
64402;BME280;50724;42.376;23.768;2024-01-11T14:35:53;93209.22;;;0.21;81.70
64402;BME280;50724;42.376;23.768;2024-01-11T14:38:54;93207.16;;;0.26;81.76
64402;BME280;50724;42.376;23.768;2024-01-11T14:41:54;93208.41;;;0.21;81.96
64402;BME280;50724;42.376;23.768;2024-01-11T14:44:55;93212.00;;;-0.07;82.67
64402;BME280;50724;42.376;23.768;2024-01-11T14:48:04;93209.09;;;-0.15;83.91
64402;BME280;50724;42.376;23.768;2024-01-11T14:51:05;93195.91;;;-0.36;84.42
64402;BME280;50724;42.376;23.768;2024-01-11T14:54:05;93197.38;;;-0.58;85.91
64402;BME280;50724;42.376;23.768;2024-01-11T14:57:06;93195.13;;;-0.63;86.30
64402;BME280;50724;42.376;23.768;2024-01-11T15:00:07;93192.53;;;-0.76;87.42
64402;BME280;50724;42.376;23.768;2024-01-11T15:03:10;93193.00;;;-0.83;89.03
64402;BME280;50724;42.376;23.768;2024-01-11T15:06:11;93184.88;;;-0.90;89.56
64402;BME280;50724;42.376;23.768;2024-01-11T15:09:12;93196.78;;;-0.89;90.03
64402;BME280;50724;42.376;23.768;2024-01-11T15:12:13;93181.41;;;-1.03;91.22
64402;BME280;50724;42.376;23.768;2024-01-11T15:15:13;93182.44;;;-1.05;92.41
64402;BME280;50724;42.376;23.768;2024-01-11T15:18:14;93188.25;;;-1.16;93.62
64402;BME280;50724;42.376;23.768;2024-01-11T15:21:14;93189.09;;;-1.15;95.09
64402;BME280;50724;42.376;23.768;2024-01-11T15:24:15;93183.31;;;-1.19;95.02
64402;BME280;50724;42.376;23.768;2024-01-11T15:27:16;93187.81;;;-1.22;95.35
64402;BME280;50724;42.376;23.768;2024-01-11T15:30:16;93178.03;;;-1.30;96.09
64402;BME280;50724;42.376;23.768;2024-01-11T15:33:17;93171.63;;;-1.37;97.32
64402;BME280;50724;42.376;23.768;2024-01-11T15:36:17;93182.44;;;-1.32;97.66
64402;BME280;50724;42.376;23.768;2024-01-11T15:39:18;93185.47;;;-1.40;98.93
64402;BME280;50724;42.376;23.768;2024-01-11T15:42:18;93178.50;;;-1.38;99.84
64402;BME280;50724;42.376;23.768;2024-01-11T15:45:19;93197.72;;;-1.30;99.63
64402;BME280;50724;42.376;23.768;2024-01-11T15:48:20;93191.69;;;-1.29;99.92
64402;BME280;50724;42.376;23.768;2024-01-11T15:51:20;93200.38;;;-1.32;100.00
64402;BME280;50724;42.376;23.768;2024-01-11T15:54:21;93194.59;;;-1.35;100.00
64402;BME280;50724;42.376;23.768;2024-01-11T15:57:21;93196.88;;;-1.31;100.00